Time;durP1;ratioP1;P1;durP2;ratioP2;P2;SDS_P1;SDS_P2;PMS_P1;PMS_P2;Temp;Humidity;BMP_temperature;BMP_pressure;BME280_temperature;BME280_humidity;BME280_pressure;Samples;Min_cycle;Max_cycle;Signal;HPM_P1;HPM_P2
2021/01/25 00:02:12;;;;;;;2.78;0.75;;;30.80;56.70;;;;;;5113348;28;20919;-81
2021/01/25 00:04:40;;;;;;;1.63;0.68;;;31.00;55.30;;;;;;5113207;28;20885;-83
2021/01/25 00:07:07;;;;;;;1.65;0.80;;;31.00;51.40;;;;;;5112925;28;20878;-82
2021/01/25 00:09:34;;;;;;;3.40;0.70;;;31.30;51.50;;;;;;5113116;28;20755;-83
2021/01/25 00:12:02;;;;;;;3.97;1.00;;;31.70;51.60;;;;;;5113188;28;20822;-82
2021/01/25 00:14:29;;;;;;;2.75;0.70;;;31.90;50.40;;;;;;5113123;28;20846;-82
2021/01/25 00:16:57;;;;;;;3.88;0.80;;;31.90;47.10;;;;;;5094757;28;20757;-81
2021/01/25 00:19:24;;;;;;;5.13;0.80;;;32.20;46.90;;;;;;5112916;28;20845;-81
2021/01/25 00:21:51;;;;;;;3.53;0.70;;;32.30;49.60;;;;;;5094537;28;20845;-82
2021/01/25 00:24:18;;;;;;;2.23;0.60;;;33.30;47.80;;;;;;5112629;28;20826;-82
2021/01/25 00:26:46;;;;;;;4.38;0.90;;;34.40;46.10;;;;;;5079002;28;20907;-80
2021/01/25 00:29:13;;;;;;;4.05;0.68;;;35.40;43.10;;;;;;5112968;28;20714;-80
2021/01/25 00:31:40;;;;;;;2.95;0.70;;;35.60;43.60;;;;;;5113012;28;22160;-81
2021/01/25 00:34:07;;;;;;;2.58;0.82;;;36.00;39.40;;;;;;5112749;28;20822;-80
2021/01/25 00:36:35;;;;;;;2.72;0.60;;;36.20;35.40;;;;;;5112794;28;20868;-81
2021/01/25 00:39:02;;;;;;;2.20;0.60;;;36.30;36.60;;;;;;5112677;28;20825;-80
2021/01/25 00:41:29;;;;;;;1.40;0.50;;;36.10;36.20;;;;;;5112445;28;20914;-80
2021/01/25 00:43:57;;;;;;;1.85;0.60;;;36.20;35.80;;;;;;5112573;28;20821;-81
2021/01/25 00:46:24;;;;;;;2.08;0.88;;;36.50;35.80;;;;;;5111206;28;20872;-81
2021/01/25 00:48:51;;;;;;;2.90;0.60;;;36.60;35.80;;;;;;5112355;28;20871;-81
2021/01/25 00:51:19;;;;;;;1.60;0.60;;;36.70;35.40;;;;;;5112391;28;20810;-81
2021/01/25 00:53:46;;;;;;;1.75;0.70;;;36.60;37.00;;;;;;5112176;28;20998;-82
2021/01/25 00:56:13;;;;;;;4.15;0.63;;;35.80;39.20;;;;;;5112683;28;20813;-81
2021/01/25 00:58:41;;;;;;;1.35;0.52;;;36.20;38.40;;;;;;5112397;28;20912;-80
2021/01/25 01:01:09;;;;;;;2.40;0.80;;;36.50;38.40;;;;;;5112330;28;20853;-81
2021/01/25 01:03:37;;;;;;;1.42;0.70;;;36.60;37.00;;;;;;5112093;28;20914;-81
2021/01/25 01:06:09;;;;;;;2.30;1.10;;;36.60;37.90;;;;;;5111820;28;20884;-81
2021/01/25 01:08:36;;;;;;;1.77;0.70;;;37.00;37.80;;;;;;5112079;28;20865;-81
2021/01/25 01:11:04;;;;;;;2.95;0.65;;;37.10;40.20;;;;;;5112022;28;20907;-82
2021/01/25 01:13:31;;;;;;;2.90;0.70;;;37.10;37.10;;;;;;5112003;28;20930;-83
2021/01/25 01:15:58;;;;;;;3.38;0.82;;;37.30;40.80;;;;;;5112022;28;20833;-82
2021/01/25 01:18:26;;;;;;;2.58;0.80;;;37.00;34.80;;;;;;5112059;28;20818;-81
2021/01/25 01:20:53;;;;;;;2.65;0.77;;;36.40;35.90;;;;;;5111990;28;20743;-81
2021/01/25 01:23:20;;;;;;;4.20;0.70;;;35.60;38.20;;;;;;5111809;28;20867;-82
2021/01/25 01:25:48;;;;;;;1.70;0.60;;;35.00;41.10;;;;;;5112199;28;20845;-79
2021/01/25 01:28:15;;;;;;;2.47;0.63;;;34.60;39.30;;;;;;5112280;28;20876;-80
2021/01/25 01:30:42;;;;;;;1.90;0.45;;;34.40;40.50;;;;;;5112314;28;20913;-81
2021/01/25 01:33:09;;;;;;;1.70;0.65;;;34.30;41.70;;;;;;5112085;28;20872;-80
2021/01/25 01:35:36;;;;;;;1.73;0.65;;;34.30;41.80;;;;;;5112264;28;20881;-81
2021/01/25 01:38:04;;;;;;;2.83;0.63;;;34.40;40.20;;;;;;5111528;28;20923;-81
2021/01/25 01:40:31;;;;;;;3.20;0.70;;;34.40;42.40;;;;;;5093091;28;20853;-82
2021/01/25 01:42:58;;;;;;;1.17;0.50;;;34.50;38.80;;;;;;5111106;28;20410;-83
2021/01/25 01:45:25;;;;;;;2.17;0.50;;;34.40;37.30;;;;;;5111419;28;20702;-82
2021/01/25 01:47:54;;;;;;;0.90;0.40;;;34.20;36.80;;;;;;5111142;28;21026;-82
2021/01/25 01:50:32;;;;;;;2.42;0.50;;;34.10;36.70;;;;;;5111750;28;20896;-81
2021/01/25 01:53:00;;;;;;;0.85;0.32;;;34.20;35.50;;;;;;5112450;28;20785;-81
2021/01/25 01:55:27;;;;;;;2.47;0.40;;;34.30;36.90;;;;;;5111108;28;20838;-81
2021/01/25 01:57:55;;;;;;;1.90;0.60;;;34.30;37.40;;;;;;5111039;28;20358;-81
2021/01/25 02:00:23;;;;;;;3.13;0.50;;;34.50;39.70;;;;;;5111041;28;20845;-82
2021/01/25 02:02:51;;;;;;;2.90;0.77;;;34.50;36.90;;;;;;5110973;28;20737;-82
2021/01/25 02:05:19;;;;;;;1.20;0.40;;;34.50;35.90;;;;;;5110750;28;20725;-83
2021/01/25 02:07:55;;;;;;;2.13;0.50;;;34.40;38.00;;;;;;5093130;28;20580;-82
2021/01/25 02:10:24;;;;;;;1.67;0.50;;;34.40;40.50;;;;;;5110827;28;20844;-81
2021/01/25 02:12:56;;;;;;;1.20;0.43;;;34.30;37.10;;;;;;5111104;28;20830;-81
2021/01/25 02:15:24;;;;;;;1.77;0.70;;;34.40;38.10;;;;;;5110937;28;20865;-82
2021/01/25 02:17:52;;;;;;;2.97;0.43;;;34.40;37.40;;;;;;5110856;28;20795;-81
2021/01/25 02:20:44;;;;;;;1.40;0.50;;;34.50;38.20;;;;;;5110782;28;20812;-81
2021/01/25 02:23:46;;;;;;;3.72;0.85;;;34.30;42.00;;;;;;5110641;28;20857;-83
2021/01/25 02:26:19;;;;;;;4.35;1.15;;;34.20;48.90;;;;;;5089038;28;20964;-82
2021/01/25 02:28:47;;;;;;;4.05;0.90;;;33.90;55.00;;;;;;5110728;28;20958;-81
2021/01/25 02:31:15;;;;;;;3.88;1.05;;;34.00;50.50;;;;;;5110693;28;20845;-81
2021/01/25 02:33:54;;;;;;;2.90;0.88;;;34.20;50.40;;;;;;5110674;28;20853;-81
2021/01/25 02:36:23;;;;;;;4.10;0.80;;;34.00;51.30;;;;;;5110470;28;20856;-81
2021/01/25 02:38:52;;;;;;;2.80;0.80;;;33.80;48.50;;;;;;5110667;28;20374;-81
2021/01/25 02:41:27;;;;;;;2.50;0.63;;;34.00;47.30;;;;;;5110687;28;20373;-82
2021/01/25 02:43:58;;;;;;;3.42;0.80;;;34.00;48.30;;;;;;5110502;28;20830;-82
2021/01/25 02:46:25;;;;;;;3.85;0.95;;;33.90;52.10;;;;;;5110377;28;20741;-82
2021/01/25 02:48:53;;;;;;;3.95;0.98;;;33.90;49.80;;;;;;5110867;28;20857;-82
2021/01/25 02:51:20;;;;;;;3.03;0.90;;;34.00;51.10;;;;;;5110529;28;20806;-82
2021/01/25 02:53:48;;;;;;;4.77;1.03;;;34.00;50.60;;;;;;5110756;28;20362;-81
2021/01/25 02:56:15;;;;;;;3.13;0.77;;;34.10;50.30;;;;;;5110594;28;20678;-83
2021/01/25 02:58:45;;;;;;;2.20;0.80;;;34.10;50.30;;;;;;5110161;28;20845;-82
2021/01/25 03:01:13;;;;;;;2.30;0.65;;;34.10;53.10;;;;;;5110450;28;20400;-82
2021/01/25 03:03:42;;;;;;;2.13;0.70;;;34.20;47.00;;;;;;5110446;28;20829;-82
2021/01/25 03:06:15;;;;;;;2.15;0.65;;;34.10;46.50;;;;;;5110035;28;20849;-82
2021/01/25 03:08:44;;;;;;;1.50;0.50;;;34.10;41.30;;;;;;5110349;28;20881;-82
2021/01/25 03:11:12;;;;;;;1.35;0.47;;;33.90;40.90;;;;;;5114084;28;20764;-82
2021/01/25 03:13:39;;;;;;;2.83;0.43;;;33.90;39.80;;;;;;5113904;28;20448;-81
2021/01/25 03:16:12;;;;;;;3.08;0.80;;;33.90;39.40;;;;;;5113916;28;20729;-82
2021/01/25 03:18:40;;;;;;;2.85;0.50;;;33.80;41.80;;;;;;5114002;28;20857;-80
2021/01/25 03:21:07;;;;;;;2.78;0.60;;;33.90;39.60;;;;;;5113956;28;20420;-81
2021/01/25 03:23:38;;;;;;;2.10;0.60;;;34.10;38.50;;;;;;5113931;28;20868;-80
2021/01/25 03:26:05;;;;;;;2.97;0.60;;;34.30;38.90;;;;;;5115356;28;20845;-79
2021/01/25 03:28:34;;;;;;;2.80;0.70;;;34.10;42.10;;;;;;5113875;28;20869;-80
2021/01/25 03:31:01;;;;;;;4.47;0.52;;;34.10;43.30;;;;;;5113976;28;20789;-80
2021/01/25 03:33:28;;;;;;;3.15;0.93;;;34.00;45.80;;;;;;5113854;28;20857;-81
2021/01/25 03:35:55;;;;;;;2.13;0.60;;;34.10;42.80;;;;;;5113682;28;20837;-80
2021/01/25 03:38:22;;;;;;;2.00;0.50;;;34.10;42.80;;;;;;5113606;28;20383;-81
2021/01/25 03:40:49;;;;;;;2.55;0.70;;;34.10;40.80;;;;;;5113597;28;20857;-80
2021/01/25 03:43:18;;;;;;;3.10;0.52;;;34.10;44.50;;;;;;5113617;28;20892;-80
2021/01/25 03:45:45;;;;;;;2.50;0.90;;;34.10;43.30;;;;;;5113437;28;20845;-79
2021/01/25 03:48:14;;;;;;;4.03;0.52;;;34.10;42.20;;;;;;5113298;28;20869;-80
2021/01/25 03:50:41;;;;;;;3.33;0.77;;;34.00;42.00;;;;;;5113562;28;20860;-80
2021/01/25 03:53:10;;;;;;;3.58;0.70;;;33.90;42.80;;;;;;5113663;28;20717;-80
2021/01/25 03:55:37;;;;;;;2.10;0.40;;;33.70;43.00;;;;;;5113327;28;20367;-79
2021/01/25 03:58:05;;;;;;;1.38;0.50;;;33.60;42.40;;;;;;5113847;28;20853;-79
2021/01/25 04:00:32;;;;;;;1.73;0.35;;;33.60;42.50;;;;;;5113552;28;20856;-80
2021/01/25 04:02:59;;;;;;;1.90;0.60;;;33.80;36.50;;;;;;5113206;28;20837;-82
2021/01/25 04:05:27;;;;;;;5.07;0.40;;;33.80;36.40;;;;;;5113079;28;20877;-81
2021/01/25 04:07:54;;;;;;;1.48;0.35;;;33.80;38.10;;;;;;5113070;28;20933;-81
2021/01/25 04:10:21;;;;;;;2.45;0.50;;;33.70;33.20;;;;;;5113583;28;20849;-82
2021/01/25 04:12:49;;;;;;;2.25;0.50;;;33.60;36.30;;;;;;5113238;28;20805;-82
2021/01/25 04:15:16;;;;;;;4.15;0.60;;;33.60;36.30;;;;;;5112785;28;20717;-81
2021/01/25 04:17:44;;;;;;;1.80;0.52;;;33.60;37.00;;;;;;5094966;28;20701;-80
2021/01/25 04:20:11;;;;;;;3.22;0.73;;;33.60;37.40;;;;;;5112756;28;20936;-80
2021/01/25 04:22:38;;;;;;;3.33;0.70;;;33.30;43.30;;;;;;5112923;28;20837;-81
2021/01/25 04:25:07;;;;;;;2.17;0.73;;;33.10;44.00;;;;;;5112950;28;20359;-80
2021/01/25 04:27:35;;;;;;;3.78;0.90;;;32.90;44.10;;;;;;5113232;28;21093;-81
2021/01/25 04:30:07;;;;;;;3.03;0.75;;;32.90;45.60;;;;;;5112602;28;20891;-81
2021/01/25 04:32:37;;;;;;;1.80;0.70;;;32.80;44.20;;;;;;5112460;28;20861;-81
2021/01/25 04:35:13;;;;;;;2.42;0.95;;;32.70;47.70;;;;;;5112439;28;20829;-82
2021/01/25 04:37:41;;;;;;;5.57;1.10;;;32.70;47.30;;;;;;5112352;28;20718;-81
2021/01/25 04:40:12;;;;;;;5.03;1.08;;;32.80;46.90;;;;;;5112580;28;20945;-81
2021/01/25 04:42:40;;;;;;;3.40;0.77;;;32.90;47.00;;;;;;5094243;28;20914;-81
2021/01/25 04:45:10;;;;;;;3.83;1.00;;;32.80;47.20;;;;;;5112245;28;20795;-81
2021/01/25 04:47:49;;;;;;;4.38;0.90;;;32.70;47.40;;;;;;5112170;28;20869;-81
2021/01/25 04:50:20;;;;;;;3.40;1.00;;;32.60;48.40;;;;;;5112254;28;20868;-81
2021/01/25 04:52:48;;;;;;;4.60;1.20;;;32.60;47.90;;;;;;5112198;28;20973;-81
2021/01/25 04:55:17;;;;;;;6.75;1.05;;;32.50;50.90;;;;;;5112174;28;20932;-81
2021/01/25 04:57:45;;;;;;;3.53;1.00;;;32.50;50.10;;;;;;5112615;28;20891;-81
2021/01/25 05:00:19;;;;;;;5.75;1.15;;;32.30;47.20;;;;;;5112003;28;20857;-81
2021/01/25 05:02:46;;;;;;;2.40;1.17;;;32.00;49.80;;;;;;5112088;28;20902;-81
2021/01/25 05:05:14;;;;;;;4.00;0.95;;;31.90;51.10;;;;;;5112109;28;20359;-81
2021/01/25 05:07:41;;;;;;;3.33;1.10;;;31.80;50.40;;;;;;5111511;28;20967;-81
2021/01/25 05:10:10;;;;;;;4.03;1.40;;;31.60;53.50;;;;;;5093648;28;20872;-81
2021/01/25 05:12:48;;;;;;;4.97;1.20;;;31.30;55.70;;;;;;5111919;28;20954;-81
2021/01/25 05:15:25;;;;;;;3.25;1.05;;;31.10;56.00;;;;;;5111793;28;20818;-81
2021/01/25 05:17:54;;;;;;;3.25;0.82;;;31.00;53.40;;;;;;5111762;28;20706;-80
2021/01/25 05:20:29;;;;;;;5.57;1.40;;;30.90;53.30;;;;;;5111829;28;20837;-81
2021/01/25 05:22:59;;;;;;;10.68;1.55;;;30.80;54.50;;;;;;5112482;28;20911;-81
2021/01/25 05:25:33;;;;;;;8.63;1.30;;;30.80;55.70;;;;;;5111716;28;20842;-84
2021/01/25 05:28:01;;;;;;;5.30;1.35;;;30.70;55.40;;;;;;5112327;28;20748;-79
2021/01/25 05:30:29;;;;;;;2.90;1.13;;;30.60;56.30;;;;;;5111565;28;20890;-79
2021/01/25 05:32:58;;;;;;;5.60;1.35;;;30.50;57.90;;;;;;5110933;28;20802;-80
2021/01/25 05:35:31;;;;;;;3.83;1.42;;;30.30;60.50;;;;;;5111409;28;20807;-80
2021/01/25 05:38:06;;;;;;;5.57;1.33;;;30.40;60.90;;;;;;5111200;28;20869;-80
2021/01/25 05:40:36;;;;;;;5.10;1.20;;;30.50;59.00;;;;;;5092974;28;20743;-81
2021/01/25 05:43:14;;;;;;;8.05;1.33;;;30.30;59.20;;;;;;5111268;28;20914;-80
2021/01/25 05:45:42;;;;;;;5.68;1.67;;;30.30;57.50;;;;;;5092983;28;21092;-80
2021/01/25 05:48:14;;;;;;;5.40;1.30;;;30.20;56.40;;;;;;5093339;28;20857;-80
2021/01/25 05:50:43;;;;;;;5.53;1.30;;;30.10;57.70;;;;;;5111126;28;20747;-81
2021/01/25 05:53:12;;;;;;;7.32;1.33;;;30.10;58.40;;;;;;5111105;28;20833;-80
2021/01/25 05:55:40;;;;;;;6.13;1.70;;;30.20;58.70;;;;;;5111147;28;20390;-81
2021/01/25 05:58:08;;;;;;;7.15;1.60;;;30.10;59.60;;;;;;5111527;28;20892;-81
2021/01/25 06:00:36;;;;;;;6.15;1.50;;;30.10;59.90;;;;;;5111041;28;20916;-80
2021/01/25 06:03:05;;;;;;;6.47;1.73;;;30.00;60.80;;;;;;5110950;28;20815;-81
2021/01/25 06:05:34;;;;;;;7.15;1.80;;;30.00;61.20;;;;;;5110831;28;20872;-81
2021/01/25 06:08:24;;;;;;;4.85;1.50;;;29.90;59.30;;;;;;5111056;28;20870;-80
2021/01/25 06:11:08;;;;;;;5.97;1.85;;;29.80;61.30;;;;;;5110467;28;20845;-81
2021/01/25 06:14:02;;;;;;;8.07;1.77;;;29.80;61.20;;;;;;5110923;28;20363;-80
2021/01/25 06:16:33;;;;;;;8.65;1.85;;;29.70;60.10;;;;;;5110864;28;20872;-81
2021/01/25 06:19:10;;;;;;;8.18;2.33;;;29.70;62.20;;;;;;5110751;28;20829;-81
2021/01/25 06:21:41;;;;;;;6.43;1.80;;;29.70;62.30;;;;;;5110648;28;20842;-80
2021/01/25 06:24:11;;;;;;;9.10;2.10;;;29.70;62.00;;;;;;5110776;28;20881;-80
2021/01/25 06:26:41;;;;;;;6.15;2.08;;;29.50;62.70;;;;;;5110977;28;20884;-79
2021/01/25 06:29:09;;;;;;;7.97;2.10;;;29.20;64.50;;;;;;5110815;28;20404;-79
2021/01/25 06:31:38;;;;;;;7.93;1.58;;;29.20;65.60;;;;;;5110632;28;20912;-80
2021/01/25 06:34:10;;;;;;;8.45;2.33;;;29.20;66.60;;;;;;5110585;28;20859;-81
2021/01/25 06:36:39;;;;;;;9.40;1.83;;;29.20;67.00;;;;;;5110726;28;20980;-79
2021/01/25 06:39:08;;;;;;;9.38;2.25;;;29.20;67.50;;;;;;5110619;28;20845;-80
2021/01/25 06:41:40;;;;;;;9.23;2.10;;;29.20;68.00;;;;;;5110635;28;20837;-80
2021/01/25 06:44:09;;;;;;;8.68;2.03;;;29.00;68.20;;;;;;5112773;28;20845;-80
2021/01/25 06:46:41;;;;;;;8.38;1.63;;;28.90;69.00;;;;;;5114658;28;20857;-81
2021/01/25 06:49:09;;;;;;;7.00;1.67;;;28.90;69.90;;;;;;5114575;28;20729;-80
2021/01/25 06:51:44;;;;;;;6.38;1.98;;;28.90;69.10;;;;;;5114650;28;20821;-81
2021/01/25 06:54:15;;;;;;;7.40;1.63;;;28.90;67.60;;;;;;5114851;28;20849;-81
2021/01/25 06:56:58;;;;;;;8.60;1.40;;;28.80;65.40;;;;;;5114813;28;20840;-81
2021/01/25 06:59:28;;;;;;;7.32;2.13;;;28.80;66.20;;;;;;5114660;28;20838;-80
2021/01/25 07:01:56;;;;;;;9.18;1.50;;;28.70;65.80;;;;;;5114469;28;20822;-81
2021/01/25 07:04:26;;;;;;;7.78;1.70;;;28.70;63.50;;;;;;5114516;28;20853;-81
2021/01/25 07:06:55;;;;;;;5.57;1.25;;;28.60;64.40;;;;;;5114024;28;20969;-81
2021/01/25 07:09:29;;;;;;;7.97;1.55;;;28.50;65.40;;;;;;5114375;28;20838;-82
2021/01/25 07:12:03;;;;;;;9.02;1.70;;;28.40;66.00;;;;;;5114365;28;20844;-81
2021/01/25 07:14:34;;;;;;;6.07;1.47;;;28.30;67.40;;;;;;5114419;28;20863;-81
2021/01/25 07:17:01;;;;;;;10.93;1.80;;;28.30;67.10;;;;;;5114054;28;20906;-80
2021/01/25 07:19:29;;;;;;;10.85;1.90;;;28.20;67.50;;;;;;5114147;28;20869;-81
2021/01/25 07:21:56;;;;;;;7.85;2.15;;;28.20;68.20;;;;;;5114114;28;20830;-82
2021/01/25 07:24:28;;;;;;;7.50;1.67;;;28.10;68.30;;;;;;5114258;28;20876;-81
2021/01/25 07:26:57;;;;;;;10.82;1.60;;;28.10;68.30;;;;;;5114171;28;20878;-80
2021/01/25 07:29:26;;;;;;;7.25;1.70;;;28.00;67.80;;;;;;5114071;28;20850;-80
2021/01/25 07:31:55;;;;;;;8.88;1.63;;;27.90;69.00;;;;;;5095452;28;20851;-81
2021/01/25 07:34:26;;;;;;;7.03;1.70;;;27.80;70.10;;;;;;5114020;28;20917;-80
2021/01/25 07:36:53;;;;;;;7.43;2.13;;;27.70;70.40;;;;;;5113841;28;20829;-80
2021/01/25 07:39:21;;;;;;;8.50;2.05;;;27.60;71.10;;;;;;5113643;28;20844;-80
2021/01/25 07:41:48;;;;;;;11.45;2.00;;;27.50;71.90;;;;;;5113724;28;20366;-81
2021/01/25 07:44:16;;;;;;;8.18;1.95;;;27.40;72.20;;;;;;5113549;28;20845;-81
2021/01/25 07:46:47;;;;;;;8.15;2.10;;;27.40;72.90;;;;;;5113878;28;21797;-79
2021/01/25 07:49:15;;;;;;;10.77;2.23;;;27.30;73.80;;;;;;5113632;28;20842;-81
2021/01/25 07:51:43;;;;;;;9.32;2.30;;;27.20;74.40;;;;;;5113526;28;20881;-80
2021/01/25 07:54:19;;;;;;;10.95;2.72;;;27.20;75.30;;;;;;5113738;28;20374;-80
2021/01/25 07:56:50;;;;;;;10.67;2.60;;;27.10;75.90;;;;;;5113151;28;20855;-80
2021/01/25 07:59:17;;;;;;;10.82;3.10;;;27.00;76.50;;;;;;5113786;28;20763;-81
2021/01/25 08:01:53;;;;;;;11.00;2.83;;;26.90;77.40;;;;;;5113649;28;20841;-81
2021/01/25 08:04:26;;;;;;;9.43;2.40;;;26.80;78.10;;;;;;5113889;28;21004;-80
2021/01/25 08:06:58;;;;;;;12.32;2.95;;;26.80;78.90;;;;;;5113837;28;20998;-81
2021/01/25 08:09:25;;;;;;;11.38;3.10;;;26.70;79.70;;;;;;5095339;28;20845;-82
2021/01/25 08:11:54;;;;;;;10.68;2.70;;;26.60;80.40;;;;;;5113010;28;20871;-80
2021/01/25 08:14:41;;;;;;;10.07;2.72;;;26.60;81.00;;;;;;5112885;28;21008;-81
2021/01/25 08:17:15;;;;;;;11.32;3.33;;;26.50;81.40;;;;;;5112844;28;20902;-80
2021/01/25 08:19:46;;;;;;;11.57;3.33;;;26.40;82.20;;;;;;5113060;28;20399;-81
2021/01/25 08:22:17;;;;;;;11.43;3.08;;;26.30;82.60;;;;;;5113172;28;20860;-80
2021/01/25 08:24:52;;;;;;;12.45;3.20;;;26.30;83.40;;;;;;5113304;28;20901;-81
2021/01/25 08:27:20;;;;;;;11.70;3.50;;;26.20;83.80;;;;;;5113092;28;20892;-80
2021/01/25 08:29:56;;;;;;;11.63;3.05;;;26.20;84.20;;;;;;5113067;28;20934;-81
2021/01/25 08:32:33;;;;;;;13.93;3.15;;;26.10;84.80;;;;;;5112864;28;20841;-81
2021/01/25 08:35:08;;;;;;;11.55;2.83;;;26.00;85.20;;;;;;5112700;28;20702;-81
2021/01/25 08:37:39;;;;;;;10.88;2.45;;;26.00;85.60;;;;;;5113062;28;20358;-81
2021/01/25 08:40:22;;;;;;;13.13;3.33;;;25.90;86.10;;;;;;5113016;28;20385;-80
2021/01/25 08:42:53;;;;;;;12.43;3.25;;;25.80;86.10;;;;;;5112393;28;20386;-81
2021/01/25 08:45:32;;;;;;;12.73;3.25;;;25.80;86.30;;;;;;5094346;28;20910;-81
2021/01/25 08:48:09;;;;;;;9.80;2.83;;;25.80;86.90;;;;;;5111939;28;20444;-80
2021/01/25 08:50:38;;;;;;;16.92;3.35;;;25.70;87.40;;;;;;5112160;28;20833;-79
2021/01/25 08:53:17;;;;;;;11.20;2.83;;;25.60;87.80;;;;;;5111910;28;20355;-80
2021/01/25 08:55:50;;;;;;;16.67;3.30;;;25.50;87.70;;;;;;5112353;28;20849;-80
2021/01/25 08:58:30;;;;;;;13.00;3.20;;;25.50;88.00;;;;;;5112441;28;20765;-80
2021/01/25 09:01:00;;;;;;;12.15;2.90;;;25.40;88.50;;;;;;5112245;28;20833;-79
2021/01/25 09:03:29;;;;;;;12.55;2.75;;;25.30;89.00;;;;;;5111967;28;20827;-80
2021/01/25 09:05:57;;;;;;;12.63;3.20;;;25.30;89.60;;;;;;5111850;28;20884;-80
2021/01/25 09:08:25;;;;;;;16.17;3.42;;;25.20;90.10;;;;;;5093431;28;20928;-80
2021/01/25 09:10:53;;;;;;;14.60;3.55;;;25.10;90.30;;;;;;5111931;28;20853;-80
2021/01/25 09:13:24;;;;;;;14.68;3.50;;;25.10;90.50;;;;;;5112089;28;20858;-81
2021/01/25 09:15:51;;;;;;;12.63;3.20;;;25.00;90.70;;;;;;5093614;28;20438;-81
2021/01/25 09:18:27;;;;;;;10.30;3.22;;;25.00;90.90;;;;;;5111765;28;20833;-81
2021/01/25 09:20:56;;;;;;;14.05;3.08;;;24.90;91.20;;;;;;5180156;22;20673;-80
2021/01/25 09:23:23;;;;;;;13.02;3.50;;;24.90;91.40;;;;;;4991552;28;20413;-80
2021/01/25 09:25:50;;;;;;;15.98;3.78;;;24.80;91.60;;;;;;4987057;28;20842;-79
2021/01/25 09:28:18;;;;;;;13.80;3.42;;;24.70;91.80;;;;;;4987090;28;20452;-80
2021/01/25 09:30:45;;;;;;;16.50;3.47;;;24.70;92.00;;;;;;4987216;28;20460;-80
2021/01/25 09:33:12;;;;;;;14.00;3.75;;;24.70;92.30;;;;;;4999177;28;20439;-81
2021/01/25 09:35:39;;;;;;;12.73;3.37;;;24.60;92.50;;;;;;5010114;28;20385;-81
2021/01/25 09:38:06;;;;;;;13.63;3.23;;;24.60;92.70;;;;;;4986768;28;20416;-81
2021/01/25 09:40:34;;;;;;;16.20;3.77;;;24.60;93.00;;;;;;4986999;28;20388;-81
2021/01/25 09:43:01;;;;;;;15.80;3.90;;;24.50;93.20;;;;;;4986879;28;20404;-81
2021/01/25 09:45:29;;;;;;;15.13;3.80;;;24.40;93.50;;;;;;4986364;28;20384;-80
2021/01/25 09:47:56;;;;;;;15.50;3.70;;;24.40;93.70;;;;;;4986671;28;20448;-82
2021/01/25 09:50:23;;;;;;;15.10;3.58;;;24.40;93.90;;;;;;4987024;28;20773;-82
2021/01/25 09:52:50;;;;;;;15.07;3.92;;;24.40;94.10;;;;;;4969390;28;20385;-81
2021/01/25 09:55:19;;;;;;;15.57;3.90;;;24.40;94.30;;;;;;4986562;28;20384;-81
2021/01/25 09:57:46;;;;;;;17.77;4.13;;;24.30;94.40;;;;;;4985715;28;20392;-81
2021/01/25 10:00:14;;;;;;;15.85;3.88;;;24.30;94.90;;;;;;4986090;28;20442;-81
2021/01/25 10:02:41;;;;;;;18.67;4.35;;;24.20;95.20;;;;;;4986548;28;20935;-82
2021/01/25 10:05:10;;;;;;;17.90;4.30;;;24.20;95.30;;;;;;4969033;28;20385;-81
2021/01/25 10:07:37;;;;;;;14.57;3.80;;;24.10;95.60;;;;;;4991002;28;20459;-80
2021/01/25 10:10:11;;;;;;;18.40;3.97;;;24.10;96.00;;;;;;5002573;28;20920;-79
2021/01/25 10:12:38;;;;;;;20.60;4.17;;;24.10;96.20;;;;;;4993800;28;20455;-79
2021/01/25 10:15:08;;;;;;;22.75;4.95;;;24.00;96.50;;;;;;4986419;28;20401;-79
2021/01/25 10:17:35;;;;;;;22.00;4.80;;;23.90;96.70;;;;;;4983484;28;20689;-80
2021/01/25 10:20:04;;;;;;;16.90;4.25;;;23.90;97.10;;;;;;5004666;28;20391;-81
2021/01/25 10:22:31;;;;;;;23.45;5.05;;;23.90;97.50;;;;;;4993955;28;20476;-80
2021/01/25 10:24:58;;;;;;;22.00;4.80;;;23.80;97.70;;;;;;4997456;28;20875;-80
2021/01/25 10:27:25;;;;;;;22.73;4.53;;;23.80;97.90;;;;;;4986537;28;20417;-80
2021/01/25 10:29:52;;;;;;;18.10;4.57;;;23.80;98.10;;;;;;5001774;28;20385;-80
2021/01/25 10:32:21;;;;;;;17.58;4.40;;;23.70;98.30;;;;;;5005606;28;20758;-80
2021/01/25 10:34:48;;;;;;;22.98;4.50;;;23.70;98.60;;;;;;5005747;28;20378;-80
2021/01/25 10:37:15;;;;;;;22.80;5.07;;;23.70;98.80;;;;;;5004270;28;20936;-80
2021/01/25 10:39:42;;;;;;;22.77;4.70;;;23.60;99.30;;;;;;5004955;28;20398;-81
2021/01/25 10:42:10;;;;;;;23.98;5.22;;;23.50;99.50;;;;;;5005383;28;20414;-81
2021/01/25 10:44:37;;;;;;;20.45;4.65;;;23.50;99.70;;;;;;5004215;28;20399;-81
2021/01/25 10:47:04;;;;;;;25.58;4.90;;;23.50;99.90;;;;;;5003061;28;20493;-80
2021/01/25 10:49:31;;;;;;;23.23;5.03;;;23.40;99.90;;;;;;5005278;28;20907;-81
2021/01/25 10:51:58;;;;;;;22.45;5.20;;;23.40;99.90;;;;;;5004865;28;20917;-81
2021/01/25 10:54:25;;;;;;;21.15;4.47;;;23.40;99.90;;;;;;5001827;28;20782;-81
2021/01/25 10:56:53;;;;;;;21.38;5.18;;;23.40;99.90;;;;;;4987715;28;20390;-82
2021/01/25 10:59:20;;;;;;;24.42;5.40;;;23.30;99.90;;;;;;4999358;28;20451;-81
2021/01/25 11:01:47;;;;;;;21.10;4.90;;;23.30;99.90;;;;;;4986195;28;20796;-81
2021/01/25 11:04:14;;;;;;;20.95;4.75;;;23.30;99.90;;;;;;4986009;28;20382;-80
2021/01/25 11:06:41;;;;;;;27.13;5.47;;;23.30;99.90;;;;;;4978896;28;20466;-80
2021/01/25 11:09:08;;;;;;;21.37;4.77;;;23.20;99.90;;;;;;5003290;28;20866;-81
2021/01/25 11:11:35;;;;;;;20.77;4.50;;;23.20;99.90;;;;;;5004160;28;20402;-81
2021/01/25 11:14:02;;;;;;;25.63;4.82;;;23.20;99.90;;;;;;5003325;28;20897;-80
2021/01/25 11:16:29;;;;;;;20.35;4.18;;;23.20;99.90;;;;;;5004523;28;20462;-81
2021/01/25 11:18:56;;;;;;;24.90;4.80;;;23.30;99.90;;;;;;5005791;28;20446;-80
2021/01/25 11:21:23;;;;;;;21.10;5.05;;;23.30;99.90;;;;;;5003860;28;20402;-81
2021/01/25 11:23:52;;;;;;;22.30;4.75;;;23.20;99.90;;;;;;5005334;28;20481;-81
2021/01/25 11:26:20;;;;;;;23.55;4.68;;;23.30;99.90;;;;;;5004073;28;20402;-81
2021/01/25 11:28:48;;;;;;;26.80;5.22;;;23.20;99.90;;;;;;5005691;28;20414;-82
2021/01/25 11:31:15;;;;;;;21.63;4.50;;;23.20;99.90;;;;;;5007765;28;20475;-81
2021/01/25 11:33:42;;;;;;;21.52;4.80;;;23.20;99.90;;;;;;5005847;28;20414;-81
2021/01/25 11:36:09;;;;;;;23.02;5.07;;;23.20;99.90;;;;;;4989929;28;20425;-81
2021/01/25 11:38:36;;;;;;;24.73;5.22;;;23.20;99.90;;;;;;5006762;28;20426;-81
2021/01/25 11:41:04;;;;;;;21.65;5.00;;;23.30;99.90;;;;;;5008098;28;20749;-81
2021/01/25 11:43:31;;;;;;;21.23;4.60;;;23.20;99.90;;;;;;5007242;28;20411;-81
2021/01/25 11:45:58;;;;;;;23.58;4.97;;;23.20;99.90;;;;;;4993828;28;20391;-81
2021/01/25 11:48:25;;;;;;;20.17;4.30;;;23.20;99.90;;;;;;5007166;28;20437;-81
2021/01/25 11:50:52;;;;;;;22.65;4.45;;;23.20;99.90;;;;;;5008564;28;20387;-81
2021/01/25 11:53:20;;;;;;;19.85;4.25;;;23.20;99.90;;;;;;5006820;28;20690;-82
2021/01/25 11:55:47;;;;;;;24.20;4.80;;;23.10;99.90;;;;;;5006247;28;20454;-81
2021/01/25 11:58:14;;;;;;;22.75;5.00;;;23.10;99.90;;;;;;5006687;28;20407;-82
2021/01/25 12:00:41;;;;;;;24.65;5.20;;;23.00;99.90;;;;;;5006509;28;20399;-82
2021/01/25 12:03:08;;;;;;;23.67;4.80;;;22.90;99.90;;;;;;5005381;28;20411;-83
2021/01/25 12:05:35;;;;;;;23.20;4.90;;;22.80;99.90;;;;;;5008651;28;20486;-82
2021/01/25 12:08:03;;;;;;;20.23;4.30;;;22.80;99.90;;;;;;5010105;28;20797;-82
2021/01/25 12:10:31;;;;;;;22.60;5.05;;;22.80;99.90;;;;;;5008222;28;20389;-82
2021/01/25 12:12:58;;;;;;;25.07;4.90;;;22.70;99.90;;;;;;5002884;28;20465;-81
2021/01/25 12:15:25;;;;;;;22.97;5.10;;;22.70;99.90;;;;;;5004407;28;20402;-81
2021/01/25 12:17:52;;;;;;;28.27;4.80;;;22.60;99.90;;;;;;5009556;28;20905;-82
2021/01/25 12:20:19;;;;;;;26.20;5.17;;;22.60;99.90;;;;;;5010862;28;20407;-81
2021/01/25 12:22:46;;;;;;;22.98;4.78;;;22.50;99.90;;;;;;5003466;28;20413;-81
2021/01/25 12:25:13;;;;;;;23.02;5.03;;;22.50;99.90;;;;;;4991564;28;20469;-80
2021/01/25 12:27:41;;;;;;;23.52;5.00;;;22.60;99.90;;;;;;5005514;28;20569;-81
2021/01/25 12:30:11;;;;;;;25.55;5.10;;;22.60;99.90;;;;;;5006576;28;20392;-80
2021/01/25 12:32:38;;;;;;;24.50;4.80;;;22.60;99.90;;;;;;5007295;28;20381;-81
2021/01/25 12:35:06;;;;;;;23.90;4.77;;;22.60;99.90;;;;;;5001481;28;20383;-81
2021/01/25 12:37:33;;;;;;;28.73;5.15;;;22.60;99.90;;;;;;5006186;28;20525;-81
2021/01/25 12:40:00;;;;;;;27.42;5.10;;;22.60;99.90;;;;;;4995011;28;20373;-81
2021/01/25 12:42:27;;;;;;;24.95;5.28;;;22.60;99.90;;;;;;4990679;28;20376;-81
2021/01/25 12:44:54;;;;;;;20.77;4.20;;;22.60;99.90;;;;;;4990922;28;20373;-80
2021/01/25 12:47:21;;;;;;;19.80;4.50;;;22.60;99.90;;;;;;4997171;28;20403;-81
2021/01/25 12:49:48;;;;;;;20.65;4.40;;;22.60;99.90;;;;;;5010319;28;20371;-81
2021/01/25 12:52:15;;;;;;;24.52;4.60;;;22.60;99.90;;;;;;5010613;28;20435;-80
2021/01/25 12:54:42;;;;;;;24.05;5.10;;;22.50;99.90;;;;;;5010781;28;20375;-81